sensor_id;sensor_type;location;lat;lon;timestamp;pressure;altitude;pressure_sealevel;temperature;humidity
73633;BME280;61927;50.080;14.418;2024-03-06T00:00:28;99518.31;;;8.70;69.83
73633;BME280;61927;50.080;14.418;2024-03-06T00:03:14;99515.22;;;8.62;70.32
73633;BME280;61927;50.080;14.418;2024-03-06T00:05:39;99520.34;;;8.65;69.91
73633;BME280;61927;50.080;14.418;2024-03-06T00:08:05;99524.06;;;8.78;69.20
73633;BME280;61927;50.080;14.418;2024-03-06T00:10:31;99521.31;;;8.80;70.06
73633;BME280;61927;50.080;14.418;2024-03-06T00:12:56;99522.88;;;8.84;69.73
73633;BME280;61927;50.080;14.418;2024-03-06T00:15:22;99520.22;;;8.84;69.58
73633;BME280;61927;50.080;14.418;2024-03-06T00:17:48;99523.47;;;8.89;69.45
73633;BME280;61927;50.080;14.418;2024-03-06T00:20:13;99529.03;;;8.84;68.75
73633;BME280;61927;50.080;14.418;2024-03-06T00:22:39;99526.38;;;8.84;69.43
73633;BME280;61927;50.080;14.418;2024-03-06T00:25:05;99536.06;;;8.68;70.35
73633;BME280;61927;50.080;14.418;2024-03-06T00:27:31;99533.25;;;8.71;70.09
73633;BME280;61927;50.080;14.418;2024-03-06T00:29:57;99542.09;;;8.37;71.29
73633;BME280;61927;50.080;14.418;2024-03-06T00:32:22;99538.03;;;8.47;71.01
73633;BME280;61927;50.080;14.418;2024-03-06T00:34:49;99538.41;;;8.57;70.19
73633;BME280;61927;50.080;14.418;2024-03-06T00:37:14;99538.25;;;8.60;70.30
73633;BME280;61927;50.080;14.418;2024-03-06T00:39:40;99537.63;;;8.72;70.33
73633;BME280;61927;50.080;14.418;2024-03-06T00:42:05;99543.56;;;8.43;69.77
73633;BME280;61927;50.080;14.418;2024-03-06T00:44:31;99549.25;;;8.35;71.14
73633;BME280;61927;50.080;14.418;2024-03-06T00:46:56;99550.38;;;8.12;72.51
73633;BME280;61927;50.080;14.418;2024-03-06T00:49:22;99555.94;;;7.53;75.94
73633;BME280;61927;50.080;14.418;2024-03-06T00:51:47;99557.66;;;7.54;76.75
73633;BME280;61927;50.080;14.418;2024-03-06T00:54:13;99560.50;;;7.49;77.34
73633;BME280;61927;50.080;14.418;2024-03-06T00:56:39;99555.44;;;7.63;77.47
73633;BME280;61927;50.080;14.418;2024-03-06T00:59:05;99566.22;;;7.59;77.36
73633;BME280;61927;50.080;14.418;2024-03-06T01:01:30;99553.00;;;7.59;77.56
73633;BME280;61927;50.080;14.418;2024-03-06T01:03:56;99560.50;;;7.49;78.02
73633;BME280;61927;50.080;14.418;2024-03-06T01:06:21;99561.16;;;7.54;78.36
73633;BME280;61927;50.080;14.418;2024-03-06T01:08:47;99564.66;;;7.55;77.87
73633;BME280;61927;50.080;14.418;2024-03-06T01:11:13;99553.16;;;7.56;77.09
73633;BME280;61927;50.080;14.418;2024-03-06T01:13:40;99566.44;;;7.54;77.13
73633;BME280;61927;50.080;14.418;2024-03-06T01:16:06;99550.31;;;7.23;78.67
73633;BME280;61927;50.080;14.418;2024-03-06T01:18:32;99555.97;;;7.15;79.07
73633;BME280;61927;50.080;14.418;2024-03-06T01:20:58;99553.31;;;7.34;77.93
73633;BME280;61927;50.080;14.418;2024-03-06T01:23:23;99560.88;;;7.23;79.14
73633;BME280;61927;50.080;14.418;2024-03-06T01:25:49;99566.72;;;6.92;80.97
73633;BME280;61927;50.080;14.418;2024-03-06T01:28:14;99562.53;;;7.25;79.93
73633;BME280;61927;50.080;14.418;2024-03-06T01:30:40;99574.09;;;6.84;80.86
73633;BME280;61927;50.080;14.418;2024-03-06T01:33:05;99570.34;;;6.89;80.73
73633;BME280;61927;50.080;14.418;2024-03-06T01:35:31;99578.75;;;6.97;80.48
73633;BME280;61927;50.080;14.418;2024-03-06T01:37:57;99571.72;;;7.17;79.85
73633;BME280;61927;50.080;14.418;2024-03-06T01:40:23;99565.16;;;7.06;79.61
73633;BME280;61927;50.080;14.418;2024-03-06T01:42:49;99576.03;;;6.80;80.21
73633;BME280;61927;50.080;14.418;2024-03-06T01:45:15;99576.91;;;6.60;80.85
73633;BME280;61927;50.080;14.418;2024-03-06T01:47:40;99582.97;;;6.62;81.82
73633;BME280;61927;50.080;14.418;2024-03-06T01:50:06;99585.53;;;6.64;80.61
73633;BME280;61927;50.080;14.418;2024-03-06T01:52:36;99578.13;;;6.92;79.30
73633;BME280;61927;50.080;14.418;2024-03-06T01:55:02;99576.69;;;6.65;80.31
73633;BME280;61927;50.080;14.418;2024-03-06T01:57:28;99583.56;;;6.48;80.78
73633;BME280;61927;50.080;14.418;2024-03-06T01:59:54;99585.00;;;6.56;80.52
73633;BME280;61927;50.080;14.418;2024-03-06T02:02:20;99580.53;;;6.37;81.31
73633;BME280;61927;50.080;14.418;2024-03-06T02:04:46;99578.16;;;6.31;81.08
73633;BME280;61927;50.080;14.418;2024-03-06T02:07:13;99583.69;;;6.45;81.45
73633;BME280;61927;50.080;14.418;2024-03-06T02:09:39;99578.53;;;6.63;81.04
73633;BME280;61927;50.080;14.418;2024-03-06T02:12:06;99584.47;;;6.68;80.67
73633;BME280;61927;50.080;14.418;2024-03-06T02:14:35;99586.13;;;6.70;80.52
73633;BME280;61927;50.080;14.418;2024-03-06T02:17:01;99585.22;;;6.51;80.80
73633;BME280;61927;50.080;14.418;2024-03-06T02:19:43;99590.94;;;6.40;82.08
73633;BME280;61927;50.080;14.418;2024-03-06T02:22:09;99587.66;;;6.35;81.46
73633;BME280;61927;50.080;14.418;2024-03-06T02:24:36;99587.03;;;6.29;82.17
73633;BME280;61927;50.080;14.418;2024-03-06T02:27:03;99585.72;;;6.39;81.88
73633;BME280;61927;50.080;14.418;2024-03-06T02:29:31;99588.09;;;6.45;81.27
73633;BME280;61927;50.080;14.418;2024-03-06T02:31:57;99587.84;;;6.51;80.63
73633;BME280;61927;50.080;14.418;2024-03-06T02:34:23;99596.88;;;6.45;81.25
73633;BME280;61927;50.080;14.418;2024-03-06T02:36:51;99597.00;;;6.42;80.67
73633;BME280;61927;50.080;14.418;2024-03-06T02:39:16;99598.25;;;6.34;81.42
73633;BME280;61927;50.080;14.418;2024-03-06T02:41:43;99598.16;;;6.15;81.98
73633;BME280;61927;50.080;14.418;2024-03-06T02:44:08;99602.06;;;6.27;81.65
73633;BME280;61927;50.080;14.418;2024-03-06T02:46:34;99605.38;;;6.32;80.85
73633;BME280;61927;50.080;14.418;2024-03-06T02:49:00;99612.41;;;6.31;80.77
73633;BME280;61927;50.080;14.418;2024-03-06T02:51:25;99610.53;;;6.13;81.71
73633;BME280;61927;50.080;14.418;2024-03-06T02:53:51;99609.72;;;6.33;81.40
73633;BME280;61927;50.080;14.418;2024-03-06T02:56:19;99612.63;;;6.47;80.99
73633;BME280;61927;50.080;14.418;2024-03-06T02:58:45;99609.47;;;6.59;79.99
73633;BME280;61927;50.080;14.418;2024-03-06T03:01:11;99613.69;;;6.43;79.95
73633;BME280;61927;50.080;14.418;2024-03-06T03:03:36;99610.38;;;6.38;80.18
73633;BME280;61927;50.080;14.418;2024-03-06T03:06:02;99609.91;;;6.48;80.02
73633;BME280;61927;50.080;14.418;2024-03-06T03:08:28;99612.34;;;6.73;78.37
73633;BME280;61927;50.080;14.418;2024-03-06T03:10:54;99614.06;;;6.74;78.50
73633;BME280;61927;50.080;14.418;2024-03-06T03:13:20;99616.63;;;6.35;80.37
73633;BME280;61927;50.080;14.418;2024-03-06T03:15:47;99612.41;;;6.31;80.93
73633;BME280;61927;50.080;14.418;2024-03-06T03:18:13;99612.69;;;6.45;80.28
73633;BME280;61927;50.080;14.418;2024-03-06T03:20:39;99617.75;;;6.70;79.03
73633;BME280;61927;50.080;14.418;2024-03-06T03:23:04;99621.97;;;6.74;78.53
73633;BME280;61927;50.080;14.418;2024-03-06T03:25:31;99620.19;;;6.34;80.14
73633;BME280;61927;50.080;14.418;2024-03-06T03:27:58;99619.00;;;6.41;79.99
73633;BME280;61927;50.080;14.418;2024-03-06T03:30:25;99621.03;;;6.35;80.02
73633;BME280;61927;50.080;14.418;2024-03-06T03:32:50;99623.56;;;6.58;78.80
73633;BME280;61927;50.080;14.418;2024-03-06T03:35:16;99625.19;;;6.40;79.90
73633;BME280;61927;50.080;14.418;2024-03-06T03:37:42;99624.28;;;6.41;78.85
73633;BME280;61927;50.080;14.418;2024-03-06T03:40:09;99630.16;;;6.48;78.93
73633;BME280;61927;50.080;14.418;2024-03-06T03:42:38;99622.50;;;6.42;78.71
73633;BME280;61927;50.080;14.418;2024-03-06T03:45:04;99626.97;;;6.40;79.08
73633;BME280;61927;50.080;14.418;2024-03-06T03:47:30;99625.84;;;6.25;79.71
73633;BME280;61927;50.080;14.418;2024-03-06T03:49:55;99628.25;;;6.52;77.56
73633;BME280;61927;50.080;14.418;2024-03-06T03:52:21;99626.47;;;6.52;77.66
73633;BME280;61927;50.080;14.418;2024-03-06T03:54:47;99627.19;;;6.76;77.09
73633;BME280;61927;50.080;14.418;2024-03-06T03:57:13;99628.25;;;6.52;76.86
73633;BME280;61927;50.080;14.418;2024-03-06T03:59:39;99630.22;;;6.46;77.57
73633;BME280;61927;50.080;14.418;2024-03-06T04:02:06;99631.94;;;6.68;76.69
73633;BME280;61927;50.080;14.418;2024-03-06T04:04:32;99639.19;;;6.63;76.39
73633;BME280;61927;50.080;14.418;2024-03-06T04:06:59;99641.75;;;6.64;76.52
73633;BME280;61927;50.080;14.418;2024-03-06T04:09:27;99636.88;;;6.55;76.48
73633;BME280;61927;50.080;14.418;2024-03-06T04:11:53;99634.56;;;6.47;77.14
73633;BME280;61927;50.080;14.418;2024-03-06T04:14:19;99636.06;;;6.33;77.43
73633;BME280;61927;50.080;14.418;2024-03-06T04:16:47;99642.25;;;6.32;77.44
73633;BME280;61927;50.080;14.418;2024-03-06T04:19:13;99644.53;;;6.19;78.17
73633;BME280;61927;50.080;14.418;2024-03-06T04:21:42;99640.28;;;6.37;77.53
73633;BME280;61927;50.080;14.418;2024-03-06T04:24:08;99637.53;;;6.40;78.03
73633;BME280;61927;50.080;14.418;2024-03-06T04:26:34;99639.25;;;6.41;78.03
73633;BME280;61927;50.080;14.418;2024-03-06T04:29:00;99642.59;;;6.44;77.81
73633;BME280;61927;50.080;14.418;2024-03-06T04:31:25;99644.31;;;6.45;77.39
73633;BME280;61927;50.080;14.418;2024-03-06T04:33:51;99647.72;;;6.27;77.84
73633;BME280;61927;50.080;14.418;2024-03-06T04:36:16;99644.28;;;6.25;77.68
73633;BME280;61927;50.080;14.418;2024-03-06T04:38:42;99646.56;;;6.55;76.96
73633;BME280;61927;50.080;14.418;2024-03-06T04:41:08;99648.63;;;6.68;76.22
73633;BME280;61927;50.080;14.418;2024-03-06T04:43:34;99658.91;;;6.74;75.92
73633;BME280;61927;50.080;14.418;2024-03-06T04:46:00;99653.28;;;6.41;77.48
73633;BME280;61927;50.080;14.418;2024-03-06T04:48:26;99654.22;;;6.61;77.08
73633;BME280;61927;50.080;14.418;2024-03-06T04:50:51;99653.03;;;6.88;75.67
73633;BME280;61927;50.080;14.418;2024-03-06T04:53:17;99652.31;;;6.64;76.69
73633;BME280;61927;50.080;14.418;2024-03-06T04:55:42;99662.78;;;6.66;76.57
73633;BME280;61927;50.080;14.418;2024-03-06T04:58:08;99657.72;;;6.61;76.86
73633;BME280;61927;50.080;14.418;2024-03-06T05:00:34;99656.84;;;6.40;77.53
73633;BME280;61927;50.080;14.418;2024-03-06T05:02:59;99659.91;;;6.30;77.88
73633;BME280;61927;50.080;14.418;2024-03-06T05:05:25;99662.34;;;6.34;77.71
73633;BME280;61927;50.080;14.418;2024-03-06T05:07:51;99656.66;;;6.23;78.76
73633;BME280;61927;50.080;14.418;2024-03-06T05:10:17;99658.13;;;6.30;78.56
73633;BME280;61927;50.080;14.418;2024-03-06T05:12:42;99655.13;;;6.60;77.71
73633;BME280;61927;50.080;14.418;2024-03-06T05:15:09;99656.91;;;6.39;78.48
73633;BME280;61927;50.080;14.418;2024-03-06T05:17:35;99663.16;;;6.36;78.55
73633;BME280;61927;50.080;14.418;2024-03-06T05:20:01;99665.78;;;6.36;78.75
73633;BME280;61927;50.080;14.418;2024-03-06T05:22:29;99670.00;;;6.40;79.30
73633;BME280;61927;50.080;14.418;2024-03-06T05:24:54;99672.94;;;6.55;78.51
73633;BME280;61927;50.080;14.418;2024-03-06T05:27:21;99675.34;;;6.39;78.60
73633;BME280;61927;50.080;14.418;2024-03-06T05:29:46;99681.19;;;6.25;79.08
73633;BME280;61927;50.080;14.418;2024-03-06T05:32:12;99679.88;;;6.35;79.18
73633;BME280;61927;50.080;14.418;2024-03-06T05:34:38;99679.38;;;6.47;79.38
73633;BME280;61927;50.080;14.418;2024-03-06T05:37:04;99680.31;;;6.46;79.10
73633;BME280;61927;50.080;14.418;2024-03-06T05:39:31;99678.72;;;6.42;79.29
73633;BME280;61927;50.080;14.418;2024-03-06T05:42:04;99688.78;;;6.33;79.09
73633;BME280;61927;50.080;14.418;2024-03-06T05:44:30;99690.81;;;6.26;79.76
73633;BME280;61927;50.080;14.418;2024-03-06T05:46:58;99691.41;;;6.33;79.61
73633;BME280;61927;50.080;14.418;2024-03-06T05:49:23;99690.91;;;6.45;78.71
73633;BME280;61927;50.080;14.418;2024-03-06T05:51:49;99692.13;;;6.58;78.20
73633;BME280;61927;50.080;14.418;2024-03-06T05:54:14;99700.28;;;6.08;79.67
73633;BME280;61927;50.080;14.418;2024-03-06T05:56:40;99690.00;;;6.02;80.88
73633;BME280;61927;50.080;14.418;2024-03-06T05:59:07;99698.09;;;6.41;79.05
73633;BME280;61927;50.080;14.418;2024-03-06T06:01:34;99700.19;;;6.11;80.68
73633;BME280;61927;50.080;14.418;2024-03-06T06:04:00;99704.16;;;6.22;80.44
73633;BME280;61927;50.080;14.418;2024-03-06T06:06:26;99704.81;;;6.05;80.36
73633;BME280;61927;50.080;14.418;2024-03-06T06:08:52;99714.75;;;5.98;80.65
73633;BME280;61927;50.080;14.418;2024-03-06T06:11:18;99722.09;;;5.90;80.80
73633;BME280;61927;50.080;14.418;2024-03-06T06:13:43;99726.81;;;5.80;81.81
73633;BME280;61927;50.080;14.418;2024-03-06T06:16:09;99728.25;;;6.12;81.05
73633;BME280;61927;50.080;14.418;2024-03-06T06:18:34;99732.22;;;6.01;80.35
73633;BME280;61927;50.080;14.418;2024-03-06T06:21:00;99735.13;;;5.70;82.83
73633;BME280;61927;50.080;14.418;2024-03-06T06:23:26;99737.34;;;5.80;82.17
73633;BME280;61927;50.080;14.418;2024-03-06T06:25:52;99733.75;;;5.83;82.92
73633;BME280;61927;50.080;14.418;2024-03-06T06:28:17;99738.25;;;5.79;82.79
73633;BME280;61927;50.080;14.418;2024-03-06T06:30:43;99743.00;;;5.70;83.57
73633;BME280;61927;50.080;14.418;2024-03-06T06:33:09;99746.22;;;5.78;83.06
73633;BME280;61927;50.080;14.418;2024-03-06T06:35:35;99740.94;;;5.55;84.79
73633;BME280;61927;50.080;14.418;2024-03-06T06:38:01;99753.25;;;5.77;84.00
73633;BME280;61927;50.080;14.418;2024-03-06T06:40:27;99755.34;;;5.93;83.30
73633;BME280;61927;50.080;14.418;2024-03-06T06:42:55;99764.38;;;5.86;84.26
73633;BME280;61927;50.080;14.418;2024-03-06T06:45:22;99767.41;;;5.75;84.37
73633;BME280;61927;50.080;14.418;2024-03-06T06:47:49;99763.69;;;5.80;84.20
73633;BME280;61927;50.080;14.418;2024-03-06T06:50:15;99771.22;;;5.66;85.22
73633;BME280;61927;50.080;14.418;2024-03-06T06:52:41;99772.94;;;5.67;85.55
73633;BME280;61927;50.080;14.418;2024-03-06T06:55:07;99773.91;;;5.90;85.12
73633;BME280;61927;50.080;14.418;2024-03-06T06:57:37;99777.41;;;5.89;85.69
73633;BME280;61927;50.080;14.418;2024-03-06T07:00:04;99768.13;;;6.25;83.89
73633;BME280;61927;50.080;14.418;2024-03-06T07:02:42;99774.94;;;6.31;83.54
73633;BME280;61927;50.080;14.418;2024-03-06T07:05:09;99770.69;;;6.05;84.87
73633;BME280;61927;50.080;14.418;2024-03-06T07:07:35;99765.88;;;6.38;83.56
73633;BME280;61927;50.080;14.418;2024-03-06T07:10:02;99773.72;;;6.39;83.37
73633;BME280;61927;50.080;14.418;2024-03-06T07:12:28;99782.69;;;6.57;82.88
73633;BME280;61927;50.080;14.418;2024-03-06T07:14:53;99785.94;;;6.64;82.12
73633;BME280;61927;50.080;14.418;2024-03-06T07:17:19;99781.31;;;6.69;82.00
73633;BME280;61927;50.080;14.418;2024-03-06T07:19:46;99780.09;;;6.77;81.10
73633;BME280;61927;50.080;14.418;2024-03-06T07:22:14;99792.09;;;6.85;81.04
73633;BME280;61927;50.080;14.418;2024-03-06T07:24:40;99774.94;;;7.17;79.18
73633;BME280;61927;50.080;14.418;2024-03-06T07:27:07;99778.69;;;7.31;77.93
73633;BME280;61927;50.080;14.418;2024-03-06T07:29:36;99780.13;;;7.38;77.03
73633;BME280;61927;50.080;14.418;2024-03-06T07:32:02;99790.50;;;7.43;77.02
73633;BME280;61927;50.080;14.418;2024-03-06T07:34:31;99788.66;;;7.25;77.17
73633;BME280;61927;50.080;14.418;2024-03-06T07:36:58;99787.06;;;7.41;77.05
73633;BME280;61927;50.080;14.418;2024-03-06T07:39:27;99796.63;;;7.43;76.84
73633;BME280;61927;50.080;14.418;2024-03-06T07:41:52;99797.81;;;7.57;75.97
73633;BME280;61927;50.080;14.418;2024-03-06T07:44:20;99797.94;;;7.54;76.11
73633;BME280;61927;50.080;14.418;2024-03-06T07:46:45;99797.81;;;7.57;75.63
73633;BME280;61927;50.080;14.418;2024-03-06T07:49:12;99807.84;;;7.69;75.18
73633;BME280;61927;50.080;14.418;2024-03-06T07:51:38;99805.38;;;7.85;74.48
73633;BME280;61927;50.080;14.418;2024-03-06T07:54:06;99811.66;;;7.62;74.37
73633;BME280;61927;50.080;14.418;2024-03-06T07:56:31;99807.00;;;7.87;74.62
73633;BME280;61927;50.080;14.418;2024-03-06T07:58:57;99807.59;;;7.94;73.51
73633;BME280;61927;50.080;14.418;2024-03-06T08:01:23;99808.81;;;8.05;73.45
73633;BME280;61927;50.080;14.418;2024-03-06T08:03:49;99818.31;;;7.91;73.58
73633;BME280;61927;50.080;14.418;2024-03-06T08:06:15;99818.81;;;7.99;72.67
73633;BME280;61927;50.080;14.418;2024-03-06T08:08:44;99826.25;;;8.09;72.68
73633;BME280;61927;50.080;14.418;2024-03-06T08:11:10;99816.97;;;8.20;72.37
73633;BME280;61927;50.080;14.418;2024-03-06T08:13:38;99827.91;;;8.31;72.04
73633;BME280;61927;50.080;14.418;2024-03-06T08:16:05;99821.47;;;8.18;71.78
73633;BME280;61927;50.080;14.418;2024-03-06T08:18:32;99826.78;;;8.36;72.29
73633;BME280;61927;50.080;14.418;2024-03-06T08:20:58;99826.44;;;8.44;71.70
73633;BME280;61927;50.080;14.418;2024-03-06T08:23:24;99818.13;;;8.52;70.75
73633;BME280;61927;50.080;14.418;2024-03-06T08:25:50;99820.63;;;8.55;70.28
73633;BME280;61927;50.080;14.418;2024-03-06T08:28:16;99816.63;;;8.65;70.35
73633;BME280;61927;50.080;14.418;2024-03-06T08:30:42;99828.09;;;8.83;69.82
73633;BME280;61927;50.080;14.418;2024-03-06T08:33:10;99826.41;;;8.82;69.89
73633;BME280;61927;50.080;14.418;2024-03-06T08:35:35;99822.91;;;8.62;70.42
73633;BME280;61927;50.080;14.418;2024-03-06T08:38:01;99822.41;;;8.73;69.79
73633;BME280;61927;50.080;14.418;2024-03-06T08:40:27;99823.94;;;8.96;69.18
73633;BME280;61927;50.080;14.418;2024-03-06T08:42:54;99820.63;;;8.73;69.21
73633;BME280;61927;50.080;14.418;2024-03-06T08:45:20;99826.69;;;8.76;69.45
73633;BME280;61927;50.080;14.418;2024-03-06T08:47:47;99829.72;;;8.49;70.63
73633;BME280;61927;50.080;14.418;2024-03-06T08:50:16;99830.59;;;8.10;72.19
73633;BME280;61927;50.080;14.418;2024-03-06T08:52:42;99830.56;;;8.31;71.23
73633;BME280;61927;50.080;14.418;2024-03-06T08:55:08;99820.34;;;8.61;70.28
73633;BME280;61927;50.080;14.418;2024-03-06T08:57:38;99825.28;;;8.50;70.27
73633;BME280;61927;50.080;14.418;2024-03-06T09:00:05;99815.78;;;8.46;70.63
73633;BME280;61927;50.080;14.418;2024-03-06T09:02:37;99819.94;;;7.93;72.96
73633;BME280;61927;50.080;14.418;2024-03-06T09:05:09;99827.78;;;7.56;74.47
73633;BME280;61927;50.080;14.418;2024-03-06T09:07:36;99822.09;;;7.65;74.36
73633;BME280;61927;50.080;14.418;2024-03-06T09:10:09;99827.06;;;7.52;75.00
73633;BME280;61927;50.080;14.418;2024-03-06T09:12:36;99826.47;;;7.45;74.67
73633;BME280;61927;50.080;14.418;2024-03-06T09:15:03;99829.25;;;7.42;75.54
73633;BME280;61927;50.080;14.418;2024-03-06T09:17:28;99827.19;;;7.29;76.00
73633;BME280;61927;50.080;14.418;2024-03-06T09:19:55;99823.69;;;7.49;75.31
73633;BME280;61927;50.080;14.418;2024-03-06T09:22:21;99818.75;;;7.61;75.01
73633;BME280;61927;50.080;14.418;2024-03-06T09:24:46;99825.00;;;7.59;74.46
73633;BME280;61927;50.080;14.418;2024-03-06T09:27:14;99832.72;;;7.63;74.27
73633;BME280;61927;50.080;14.418;2024-03-06T09:29:40;99819.91;;;7.74;74.16
73633;BME280;61927;50.080;14.418;2024-03-06T09:32:06;99825.16;;;7.95;73.76
73633;BME280;61927;50.080;14.418;2024-03-06T09:34:32;99822.53;;;7.95;73.01
73633;BME280;61927;50.080;14.418;2024-03-06T09:36:57;99824.75;;;8.04;73.14
73633;BME280;61927;50.080;14.418;2024-03-06T09:39:23;99827.69;;;8.17;72.03
73633;BME280;61927;50.080;14.418;2024-03-06T09:41:49;99828.97;;;8.27;72.23
73633;BME280;61927;50.080;14.418;2024-03-06T09:44:16;99822.94;;;8.44;71.74
73633;BME280;61927;50.080;14.418;2024-03-06T09:46:46;99829.00;;;8.46;71.21
73633;BME280;61927;50.080;14.418;2024-03-06T09:49:14;99838.50;;;8.50;70.67
73633;BME280;61927;50.080;14.418;2024-03-06T09:51:48;99829.66;;;8.51;71.34
73633;BME280;61927;50.080;14.418;2024-03-06T09:54:19;99836.22;;;8.61;70.09
73633;BME280;61927;50.080;14.418;2024-03-06T09:56:46;99837.88;;;8.99;69.34
73633;BME280;61927;50.080;14.418;2024-03-06T09:59:12;99834.38;;;9.16;68.22
73633;BME280;61927;50.080;14.418;2024-03-06T10:01:48;99830.41;;;9.42;66.92
73633;BME280;61927;50.080;14.418;2024-03-06T10:04:26;99821.06;;;9.52;66.57
73633;BME280;61927;50.080;14.418;2024-03-06T10:06:53;99825.81;;;9.46;66.71
73633;BME280;61927;50.080;14.418;2024-03-06T10:09:20;99833.28;;;9.20;67.91
73633;BME280;61927;50.080;14.418;2024-03-06T10:11:46;99829.47;;;9.26;66.81
73633;BME280;61927;50.080;14.418;2024-03-06T10:14:12;99841.00;;;9.07;66.84
73633;BME280;61927;50.080;14.418;2024-03-06T10:19:20;99830.50;;;9.41;66.59
73633;BME280;61927;50.080;14.418;2024-03-06T10:21:49;99833.38;;;9.36;66.98
73633;BME280;61927;50.080;14.418;2024-03-06T10:24:21;99833.22;;;9.39;66.95
73633;BME280;61927;50.080;14.418;2024-03-06T10:26:49;99834.94;;;9.57;66.79
73633;BME280;61927;50.080;14.418;2024-03-06T10:29:18;99834.06;;;9.57;66.35
73633;BME280;61927;50.080;14.418;2024-03-06T10:31:54;99839.28;;;9.58;66.11
73633;BME280;61927;50.080;14.418;2024-03-06T10:34:25;99839.28;;;9.58;65.61
73633;BME280;61927;50.080;14.418;2024-03-06T10:37:01;99836.06;;;9.86;64.88
73633;BME280;61927;50.080;14.418;2024-03-06T10:39:35;99838.97;;;9.64;65.50
73633;BME280;61927;50.080;14.418;2024-03-06T10:42:06;99840.38;;;9.54;65.49
73633;BME280;61927;50.080;14.418;2024-03-06T10:44:38;99835.63;;;9.26;66.10
73633;BME280;61927;50.080;14.418;2024-03-06T10:47:10;99840.63;;;9.15;66.66
73633;BME280;61927;50.080;14.418;2024-03-06T10:49:36;99836.59;;;8.89;67.61
73633;BME280;61927;50.080;14.418;2024-03-06T10:52:04;99843.47;;;8.93;67.45
73633;BME280;61927;50.080;14.418;2024-03-06T10:54:34;99831.56;;;9.02;66.43
73633;BME280;61927;50.080;14.418;2024-03-06T10:57:10;99833.34;;;9.01;67.16
73633;BME280;61927;50.080;14.418;2024-03-06T10:59:36;99835.38;;;8.96;67.33
73633;BME280;61927;50.080;14.418;2024-03-06T11:02:01;99837.09;;;9.15;67.57
73633;BME280;61927;50.080;14.418;2024-03-06T11:04:33;99829.63;;;9.23;66.67
73633;BME280;61927;50.080;14.418;2024-03-06T11:07:03;99824.09;;;9.27;66.60
73633;BME280;61927;50.080;14.418;2024-03-06T11:09:37;99825.34;;;9.72;64.77
73633;BME280;61927;50.080;14.418;2024-03-06T11:12:06;99818.72;;;9.96;62.52
73633;BME280;61927;50.080;14.418;2024-03-06T11:14:33;99825.41;;;10.03;62.86
73633;BME280;61927;50.080;14.418;2024-03-06T11:17:03;99820.25;;;9.85;62.56
73633;BME280;61927;50.080;14.418;2024-03-06T11:19:30;99824.13;;;9.95;61.79
73633;BME280;61927;50.080;14.418;2024-03-06T11:21:57;99819.78;;;9.77;62.93
73633;BME280;61927;50.080;14.418;2024-03-06T11:24:33;99828.28;;;9.83;63.51
73633;BME280;61927;50.080;14.418;2024-03-06T11:32:29;99820.53;;;9.46;62.33
73633;BME280;61927;50.080;14.418;2024-03-06T11:34:55;99818.97;;;9.42;62.27
73633;BME280;61927;50.080;14.418;2024-03-06T11:37:21;99822.41;;;9.44;62.26
73633;BME280;61927;50.080;14.418;2024-03-06T11:39:48;99821.84;;;9.37;62.84
73633;BME280;61927;50.080;14.418;2024-03-06T11:42:14;99812.81;;;9.58;62.26
73633;BME280;61927;50.080;14.418;2024-03-06T11:44:53;99826.22;;;9.38;61.46
73633;BME280;61927;50.080;14.418;2024-03-06T11:47:25;99816.22;;;9.60;61.28
73633;BME280;61927;50.080;14.418;2024-03-06T11:50:13;99812.25;;;9.69;61.03
73633;BME280;61927;50.080;14.418;2024-03-06T11:53:39;99812.09;;;10.05;60.59
73633;BME280;61927;50.080;14.418;2024-03-06T11:56:29;99810.25;;;9.90;60.38
73633;BME280;61927;50.080;14.418;2024-03-06T11:58:55;99817.50;;;9.86;59.66
73633;BME280;61927;50.080;14.418;2024-03-06T12:01:20;99811.81;;;9.94;59.06
73633;BME280;61927;50.080;14.418;2024-03-06T12:03:46;99821.13;;;10.01;58.43
73633;BME280;61927;50.080;14.418;2024-03-06T12:06:12;99813.19;;;10.01;58.38
73633;BME280;61927;50.080;14.418;2024-03-06T12:08:39;99811.72;;;9.95;58.71
73633;BME280;61927;50.080;14.418;2024-03-06T12:11:04;99805.97;;;10.20;58.51
73633;BME280;61927;50.080;14.418;2024-03-06T12:13:31;99799.47;;;9.93;58.94
73633;BME280;61927;50.080;14.418;2024-03-06T12:15:56;99804.72;;;9.94;59.27
73633;BME280;61927;50.080;14.418;2024-03-06T12:18:24;99802.50;;;10.02;59.21
73633;BME280;61927;50.080;14.418;2024-03-06T12:20:50;99800.16;;;9.63;60.12
73633;BME280;61927;50.080;14.418;2024-03-06T12:23:21;99798.47;;;9.45;60.91
73633;BME280;61927;50.080;14.418;2024-03-06T12:25:47;99793.50;;;9.39;61.80
73633;BME280;61927;50.080;14.418;2024-03-06T12:28:13;99795.91;;;9.44;61.35
73633;BME280;61927;50.080;14.418;2024-03-06T12:30:41;99796.44;;;9.50;61.10
73633;BME280;61927;50.080;14.418;2024-03-06T12:33:10;99791.53;;;9.60;60.85
73633;BME280;61927;50.080;14.418;2024-03-06T12:35:40;99788.88;;;9.60;60.44
73633;BME280;61927;50.080;14.418;2024-03-06T12:38:13;99785.69;;;9.53;60.61
73633;BME280;61927;50.080;14.418;2024-03-06T12:40:39;99776.56;;;9.59;60.06
73633;BME280;61927;50.080;14.418;2024-03-06T12:43:05;99789.69;;;9.78;59.64
73633;BME280;61927;50.080;14.418;2024-03-06T12:45:32;99780.44;;;9.69;58.45
73633;BME280;61927;50.080;14.418;2024-03-06T12:47:58;99782.81;;;9.91;57.76
73633;BME280;61927;50.080;14.418;2024-03-06T12:50:24;99782.13;;;10.20;56.80
73633;BME280;61927;50.080;14.418;2024-03-06T12:52:54;99777.66;;;10.21;54.30
73633;BME280;61927;50.080;14.418;2024-03-06T12:55:21;99763.97;;;10.60;53.44
73633;BME280;61927;50.080;14.418;2024-03-06T12:57:59;99768.50;;;10.58;53.75
73633;BME280;61927;50.080;14.418;2024-03-06T13:00:29;99772.44;;;10.51;54.30
73633;BME280;61927;50.080;14.418;2024-03-06T13:03:02;99768.75;;;10.53;53.88
73633;BME280;61927;50.080;14.418;2024-03-06T13:05:37;99766.97;;;10.38;55.11
73633;BME280;61927;50.080;14.418;2024-03-06T13:08:06;99767.31;;;10.63;54.58